sensor_id;sensor_type;location;lat;lon;timestamp;pressure;altitude;pressure_sealevel;temperature;humidity
70815;BME280;58428;49.478;10.986;2022-10-26T00:00:46;98605.13;;;10.41;100.00
70815;BME280;58428;49.478;10.986;2022-10-26T00:03:12;98609.09;;;10.35;100.00
70815;BME280;58428;49.478;10.986;2022-10-26T00:05:38;98604.81;;;10.34;100.00
70815;BME280;58428;49.478;10.986;2022-10-26T00:08:04;98602.44;;;10.32;100.00
70815;BME280;58428;49.478;10.986;2022-10-26T00:10:30;98601.16;;;10.30;100.00
70815;BME280;58428;49.478;10.986;2022-10-26T00:12:57;98596.84;;;10.29;100.00
70815;BME280;58428;49.478;10.986;2022-10-26T00:15:23;98597.66;;;10.29;100.00
70815;BME280;58428;49.478;10.986;2022-10-26T00:17:49;98593.06;;;10.30;100.00
70815;BME280;58428;49.478;10.986;2022-10-26T00:20:15;98589.06;;;10.27;100.00
70815;BME280;58428;49.478;10.986;2022-10-26T00:22:41;98599.09;;;10.27;100.00
70815;BME280;58428;49.478;10.986;2022-10-26T00:25:08;98606.09;;;10.28;100.00
70815;BME280;58428;49.478;10.986;2022-10-26T00:27:33;98604.19;;;10.28;100.00
70815;BME280;58428;49.478;10.986;2022-10-26T00:30:04;98606.72;;;10.33;100.00
70815;BME280;58428;49.478;10.986;2022-10-26T00:32:32;98600.19;;;10.34;100.00
70815;BME280;58428;49.478;10.986;2022-10-26T00:34:58;98599.22;;;10.39;100.00
70815;BME280;58428;49.478;10.986;2022-10-26T00:37:25;98602.56;;;10.44;100.00
70815;BME280;58428;49.478;10.986;2022-10-26T00:39:53;98590.78;;;10.49;100.00
70815;BME280;58428;49.478;10.986;2022-10-26T00:42:20;98588.41;;;10.56;100.00
70815;BME280;58428;49.478;10.986;2022-10-26T00:47:24;98599.69;;;10.58;100.00
70815;BME280;58428;49.478;10.986;2022-10-26T00:49:53;98591.06;;;10.64;100.00
70815;BME280;58428;49.478;10.986;2022-10-26T00:52:22;98587.44;;;10.68;100.00
70815;BME280;58428;49.478;10.986;2022-10-26T00:54:48;98584.72;;;10.68;100.00
70815;BME280;58428;49.478;10.986;2022-10-26T00:57:16;98580.25;;;10.72;100.00
70815;BME280;58428;49.478;10.986;2022-10-26T00:59:43;98566.53;;;10.77;100.00
70815;BME280;58428;49.478;10.986;2022-10-26T01:02:10;98560.97;;;10.82;100.00
70815;BME280;58428;49.478;10.986;2022-10-26T01:04:39;98561.59;;;10.88;100.00
70815;BME280;58428;49.478;10.986;2022-10-26T01:07:05;98556.75;;;10.93;100.00
70815;BME280;58428;49.478;10.986;2022-10-26T01:09:31;98567.00;;;10.88;100.00
70815;BME280;58428;49.478;10.986;2022-10-26T01:11:58;98564.13;;;10.84;100.00
70815;BME280;58428;49.478;10.986;2022-10-26T01:14:27;98553.47;;;10.79;100.00
70815;BME280;58428;49.478;10.986;2022-10-26T01:22:42;98561.25;;;10.89;100.00
70815;BME280;58428;49.478;10.986;2022-10-26T01:25:23;98564.13;;;10.84;100.00
70815;BME280;58428;49.478;10.986;2022-10-26T01:27:52;98556.66;;;10.90;100.00
70815;BME280;58428;49.478;10.986;2022-10-26T01:30:40;98557.44;;;10.90;100.00
70815;BME280;58428;49.478;10.986;2022-10-26T01:36:33;98556.03;;;10.84;100.00
70815;BME280;58428;49.478;10.986;2022-10-26T01:39:16;98560.13;;;10.82;100.00
70815;BME280;58428;49.478;10.986;2022-10-26T01:41:54;98559.34;;;10.81;100.00
70815;BME280;58428;49.478;10.986;2022-10-26T01:44:39;98558.41;;;10.77;100.00
70815;BME280;58428;49.478;10.986;2022-10-26T01:47:11;98555.53;;;10.82;100.00
70815;BME280;58428;49.478;10.986;2022-10-26T01:49:42;98565.41;;;10.87;100.00
70815;BME280;58428;49.478;10.986;2022-10-26T01:52:09;98555.53;;;10.82;100.00
70815;BME280;58428;49.478;10.986;2022-10-26T01:54:36;98550.78;;;10.79;100.00
70815;BME280;58428;49.478;10.986;2022-10-26T01:57:04;98550.59;;;10.84;100.00
70815;BME280;58428;49.478;10.986;2022-10-26T02:00:08;98549.00;;;10.83;100.00
70815;BME280;58428;49.478;10.986;2022-10-26T02:03:07;98554.09;;;10.85;100.00
70815;BME280;58428;49.478;10.986;2022-10-26T02:05:32;98575.59;;;10.81;100.00
70815;BME280;58428;49.478;10.986;2022-10-26T02:08:35;98584.03;;;10.80;100.00
70815;BME280;58428;49.478;10.986;2022-10-26T02:14:05;98577.81;;;10.88;100.00
70815;BME280;58428;49.478;10.986;2022-10-26T02:19:13;98566.28;;;10.99;100.00
70815;BME280;58428;49.478;10.986;2022-10-26T02:21:48;98559.47;;;11.02;100.00
70815;BME280;58428;49.478;10.986;2022-10-26T02:24:16;98547.19;;;11.04;100.00
70815;BME280;58428;49.478;10.986;2022-10-26T02:26:45;98551.28;;;11.10;100.00
70815;BME280;58428;49.478;10.986;2022-10-26T02:29:15;98541.94;;;10.99;100.00
70815;BME280;58428;49.478;10.986;2022-10-26T02:31:43;98528.84;;;11.09;100.00
70815;BME280;58428;49.478;10.986;2022-10-26T02:34:16;98547.78;;;11.09;100.00
70815;BME280;58428;49.478;10.986;2022-10-26T02:36:49;98559.94;;;11.03;100.00
70815;BME280;58428;49.478;10.986;2022-10-26T02:39:15;98551.81;;;10.95;100.00
70815;BME280;58428;49.478;10.986;2022-10-26T02:41:42;98547.50;;;11.02;100.00
70815;BME280;58428;49.478;10.986;2022-10-26T02:44:15;98556.22;;;11.08;100.00
70815;BME280;58428;49.478;10.986;2022-10-26T02:46:43;98549.41;;;11.02;100.00
70815;BME280;58428;49.478;10.986;2022-10-26T02:49:09;98548.63;;;11.02;100.00
70815;BME280;58428;49.478;10.986;2022-10-26T02:54:14;98554.16;;;11.13;100.00
70815;BME280;58428;49.478;10.986;2022-10-26T02:56:57;98562.06;;;11.18;100.00
70815;BME280;58428;49.478;10.986;2022-10-26T02:59:29;98555.25;;;11.12;100.00
70815;BME280;58428;49.478;10.986;2022-10-26T03:02:07;98555.56;;;11.11;100.00
70815;BME280;58428;49.478;10.986;2022-10-26T03:04:33;98557.59;;;11.22;100.00
70815;BME280;58428;49.478;10.986;2022-10-26T03:06:59;98561.44;;;11.21;100.00
70815;BME280;58428;49.478;10.986;2022-10-26T03:09:28;98554.84;;;11.31;100.00
70815;BME280;58428;49.478;10.986;2022-10-26T03:11:54;98564.28;;;11.25;100.00
70815;BME280;58428;49.478;10.986;2022-10-26T03:14:21;98560.44;;;11.26;100.00
70815;BME280;58428;49.478;10.986;2022-10-26T03:16:47;98557.59;;;11.22;100.00
70815;BME280;58428;49.478;10.986;2022-10-26T03:19:14;98560.75;;;11.33;100.00
70815;BME280;58428;49.478;10.986;2022-10-26T03:21:42;98561.47;;;11.41;100.00
70815;BME280;58428;49.478;10.986;2022-10-26T03:24:08;98557.94;;;11.49;100.00
70815;BME280;58428;49.478;10.986;2022-10-26T03:26:33;98560.06;;;11.44;100.00
70815;BME280;58428;49.478;10.986;2022-10-26T03:29:01;98557.38;;;11.44;100.00
70815;BME280;58428;49.478;10.986;2022-10-26T03:31:26;98562.91;;;11.47;100.00
70815;BME280;58428;49.478;10.986;2022-10-26T03:33:52;98552.34;;;11.54;100.00
70815;BME280;58428;49.478;10.986;2022-10-26T03:36:20;98560.19;;;11.47;100.00
70815;BME280;58428;49.478;10.986;2022-10-26T03:38:46;98544.41;;;11.49;100.00
70815;BME280;58428;49.478;10.986;2022-10-26T03:41:11;98544.22;;;11.54;100.00
70815;BME280;58428;49.478;10.986;2022-10-26T03:43:37;98543.09;;;11.55;100.00
70815;BME280;58428;49.478;10.986;2022-10-26T03:46:02;98546.16;;;11.54;100.00
70815;BME280;58428;49.478;10.986;2022-10-26T03:48:28;98542.28;;;11.55;100.00
70815;BME280;58428;49.478;10.986;2022-10-26T03:50:57;98539.41;;;11.60;100.00
70815;BME280;58428;49.478;10.986;2022-10-26T03:53:25;98538.09;;;11.66;100.00
70815;BME280;58428;49.478;10.986;2022-10-26T03:55:51;98541.25;;;11.68;100.00
70815;BME280;58428;49.478;10.986;2022-10-26T03:58:16;98547.72;;;11.55;100.00
70815;BME280;58428;49.478;10.986;2022-10-26T04:00:42;98547.09;;;11.49;100.00
70815;BME280;58428;49.478;10.986;2022-10-26T04:03:07;98543.81;;;11.36;100.00
70815;BME280;58428;49.478;10.986;2022-10-26T04:05:33;98550.22;;;11.31;100.00
70815;BME280;58428;49.478;10.986;2022-10-26T04:08:00;98544.03;;;11.31;100.00
70815;BME280;58428;49.478;10.986;2022-10-26T04:10:29;98544.59;;;11.36;100.00
70815;BME280;58428;49.478;10.986;2022-10-26T04:12:56;98550.03;;;11.44;100.00
70815;BME280;58428;49.478;10.986;2022-10-26T04:15:23;98542.81;;;11.48;100.00
70815;BME280;58428;49.478;10.986;2022-10-26T04:17:54;98543.16;;;11.47;100.00
70815;BME280;58428;49.478;10.986;2022-10-26T04:20:21;98552.72;;;11.44;100.00
70815;BME280;58428;49.478;10.986;2022-10-26T04:22:46;98566.28;;;11.36;100.00
70815;BME280;58428;49.478;10.986;2022-10-26T04:25:13;98559.94;;;11.32;100.00
70815;BME280;58428;49.478;10.986;2022-10-26T04:27:40;98564.06;;;11.38;100.00
70815;BME280;58428;49.478;10.986;2022-10-26T04:30:08;98561.47;;;11.41;100.00
70815;BME280;58428;49.478;10.986;2022-10-26T04:32:34;98568.00;;;11.49;100.00
70815;BME280;58428;49.478;10.986;2022-10-26T04:34:59;98572.78;;;11.52;100.00
70815;BME280;58428;49.478;10.986;2022-10-26T04:37:26;98570.25;;;11.47;100.00
70815;BME280;58428;49.478;10.986;2022-10-26T04:39:51;98571.19;;;11.42;100.00
70815;BME280;58428;49.478;10.986;2022-10-26T04:42:16;98576.47;;;11.39;100.00
70815;BME280;58428;49.478;10.986;2022-10-26T04:44:42;98569.50;;;11.30;100.00
70815;BME280;58428;49.478;10.986;2022-10-26T04:47:07;98572.97;;;11.38;100.00
70815;BME280;58428;49.478;10.986;2022-10-26T04:49:32;98573.13;;;11.42;100.00
70815;BME280;58428;49.478;10.986;2022-10-26T04:51:58;98562.72;;;11.52;100.00
70815;BME280;58428;49.478;10.986;2022-10-26T04:54:23;98570.25;;;11.47;100.00
70815;BME280;58428;49.478;10.986;2022-10-26T04:56:50;98573.75;;;11.39;100.00
70815;BME280;58428;49.478;10.986;2022-10-26T04:59:15;98573.34;;;11.29;100.00
70815;BME280;58428;49.478;10.986;2022-10-26T05:01:41;98576.06;;;11.29;100.00
70815;BME280;58428;49.478;10.986;2022-10-26T05:04:06;98572.53;;;11.28;100.00
70815;BME280;58428;49.478;10.986;2022-10-26T05:06:33;98569.81;;;11.28;100.00
70815;BME280;58428;49.478;10.986;2022-10-26T05:08:59;98559.91;;;11.40;100.00
70815;BME280;58428;49.478;10.986;2022-10-26T05:11:24;98556.06;;;11.41;100.00
70815;BME280;58428;49.478;10.986;2022-10-26T05:13:49;98554.94;;;11.42;100.00
70815;BME280;58428;49.478;10.986;2022-10-26T05:16:15;98552.88;;;11.48;100.00
70815;BME280;58428;49.478;10.986;2022-10-26T05:18:41;98561.47;;;11.50;100.00
70815;BME280;58428;49.478;10.986;2022-10-26T05:21:07;98561.09;;;11.60;100.00
70815;BME280;58428;49.478;10.986;2022-10-26T05:23:34;98563.44;;;11.61;100.00
70815;BME280;58428;49.478;10.986;2022-10-26T05:25:59;98563.81;;;11.60;100.00
70815;BME280;58428;49.478;10.986;2022-10-26T05:28:24;98563.44;;;11.61;100.00
70815;BME280;58428;49.478;10.986;2022-10-26T05:30:51;98569.53;;;11.58;100.00
70815;BME280;58428;49.478;10.986;2022-10-26T05:33:16;98572.72;;;11.60;100.00
70815;BME280;58428;49.478;10.986;2022-10-26T05:35:42;98572.88;;;11.55;100.00
70815;BME280;58428;49.478;10.986;2022-10-26T05:40:33;98585.34;;;11.56;100.00
70815;BME280;58428;49.478;10.986;2022-10-26T05:42:59;98578.28;;;11.64;100.00
70815;BME280;58428;49.478;10.986;2022-10-26T05:45:25;98576.81;;;11.66;100.00
70815;BME280;58428;49.478;10.986;2022-10-26T05:47:51;98561.41;;;11.58;100.00
70815;BME280;58428;49.478;10.986;2022-10-26T05:50:17;98572.72;;;11.60;100.00
70815;BME280;58428;49.478;10.986;2022-10-26T05:52:44;98575.75;;;11.59;100.00
70815;BME280;58428;49.478;10.986;2022-10-26T05:55:12;98570.00;;;11.60;100.00
70815;BME280;58428;49.478;10.986;2022-10-26T05:57:39;98566.16;;;11.61;100.00
70815;BME280;58428;49.478;10.986;2022-10-26T06:00:17;98563.59;;;11.65;100.00
70815;BME280;58428;49.478;10.986;2022-10-26T06:06:12;98562.16;;;11.67;100.00
70815;BME280;58428;49.478;10.986;2022-10-26T06:08:38;98566.13;;;11.70;100.00
70815;BME280;58428;49.478;10.986;2022-10-26T06:11:04;98568.84;;;11.70;100.00
70815;BME280;58428;49.478;10.986;2022-10-26T06:13:32;98576.75;;;11.75;100.00
70815;BME280;58428;49.478;10.986;2022-10-26T06:18:51;98574.97;;;11.78;100.00
70815;BME280;58428;49.478;10.986;2022-10-26T06:27:18;98578.44;;;11.87;100.00
70815;BME280;58428;49.478;10.986;2022-10-26T06:30:03;98580.81;;;11.89;100.00
70815;BME280;58428;49.478;10.986;2022-10-26T06:32:30;98579.50;;;11.95;100.00
70815;BME280;58428;49.478;10.986;2022-10-26T06:37:41;98584.59;;;11.96;100.00
70815;BME280;58428;49.478;10.986;2022-10-26T06:40:10;98581.41;;;11.94;100.00
70815;BME280;58428;49.478;10.986;2022-10-26T06:42:39;98581.75;;;11.93;100.00
70815;BME280;58428;49.478;10.986;2022-10-26T06:45:05;98584.63;;;11.88;100.00
70815;BME280;58428;49.478;10.986;2022-10-26T06:47:52;98577.50;;;11.83;100.00
70815;BME280;58428;49.478;10.986;2022-10-26T06:53:29;98577.84;;;12.02;100.00
70815;BME280;58428;49.478;10.986;2022-10-26T06:55:58;98579.34;;;12.12;100.00
70815;BME280;58428;49.478;10.986;2022-10-26T06:58:27;98576.75;;;12.15;100.00
70815;BME280;58428;49.478;10.986;2022-10-26T07:00:54;98571.28;;;12.23;100.00
70815;BME280;58428;49.478;10.986;2022-10-26T07:03:20;98576.72;;;12.23;100.00
70815;BME280;58428;49.478;10.986;2022-10-26T07:05:45;98584.72;;;12.20;100.00
70815;BME280;58428;49.478;10.986;2022-10-26T07:08:11;98588.06;;;12.17;100.00
70815;BME280;58428;49.478;10.986;2022-10-26T07:10:37;98592.72;;;12.16;100.00
70815;BME280;58428;49.478;10.986;2022-10-26T07:13:07;98606.56;;;12.23;100.00
70815;BME280;58428;49.478;10.986;2022-10-26T07:15:34;98614.47;;;12.28;100.00
70815;BME280;58428;49.478;10.986;2022-10-26T07:18:02;98616.31;;;12.36;100.00
70815;BME280;58428;49.478;10.986;2022-10-26T07:20:31;98617.50;;;12.47;100.00
70815;BME280;58428;49.478;10.986;2022-10-26T07:22:59;98614.16;;;12.62;100.00
70815;BME280;58428;49.478;10.986;2022-10-26T07:25:25;98617.59;;;12.71;100.00
70815;BME280;58428;49.478;10.986;2022-10-26T07:27:50;98621.38;;;12.78;100.00
70815;BME280;58428;49.478;10.986;2022-10-26T07:30:16;98624.00;;;12.87;100.00
70815;BME280;58428;49.478;10.986;2022-10-26T07:32:43;98626.44;;;13.00;100.00
70815;BME280;58428;49.478;10.986;2022-10-26T07:35:09;98622.69;;;13.04;100.00
70815;BME280;58428;49.478;10.986;2022-10-26T07:37:34;98627.34;;;13.04;100.00
70815;BME280;58428;49.478;10.986;2022-10-26T07:40:01;98637.00;;;13.13;100.00
70815;BME280;58428;49.478;10.986;2022-10-26T07:42:27;98646.47;;;13.07;100.00
70815;BME280;58428;49.478;10.986;2022-10-26T07:44:52;98645.34;;;13.08;100.00
70815;BME280;58428;49.478;10.986;2022-10-26T07:47:18;98650.38;;;13.18;100.00
70815;BME280;58428;49.478;10.986;2022-10-26T07:49:43;98653.75;;;13.15;100.00
70815;BME280;58428;49.478;10.986;2022-10-26T07:52:09;98650.13;;;13.11;100.00
70815;BME280;58428;49.478;10.986;2022-10-26T07:54:34;98658.25;;;13.11;100.00
70815;BME280;58428;49.478;10.986;2022-10-26T07:57:00;98655.69;;;13.15;100.00
70815;BME280;58428;49.478;10.986;2022-10-26T07:59:25;98657.19;;;13.24;100.00
70815;BME280;58428;49.478;10.986;2022-10-26T08:01:51;98654.78;;;13.23;100.00
70815;BME280;58428;49.478;10.986;2022-10-26T08:04:17;98663.84;;;13.26;100.00
70815;BME280;58428;49.478;10.986;2022-10-26T08:06:43;98662.63;;;13.36;100.00
70815;BME280;58428;49.478;10.986;2022-10-26T08:09:09;98667.25;;;13.35;100.00
70815;BME280;58428;49.478;10.986;2022-10-26T08:11:35;98668.97;;;13.40;100.00
70815;BME280;58428;49.478;10.986;2022-10-26T08:14:02;98665.69;;;13.46;100.00
70815;BME280;58428;49.478;10.986;2022-10-26T08:16:28;98673.50;;;13.48;100.00
70815;BME280;58428;49.478;10.986;2022-10-26T08:18:54;98660.94;;;13.55;100.00
70815;BME280;58428;49.478;10.986;2022-10-26T08:21:19;98674.41;;;13.52;100.00
70815;BME280;58428;49.478;10.986;2022-10-26T08:23:45;98675.09;;;13.49;100.00
70815;BME280;58428;49.478;10.986;2022-10-26T08:26:10;98669.56;;;13.45;100.00
70815;BME280;58428;49.478;10.986;2022-10-26T08:28:36;98667.94;;;13.44;100.00
70815;BME280;58428;49.478;10.986;2022-10-26T08:31:02;98666.25;;;13.52;100.00
70815;BME280;58428;49.478;10.986;2022-10-26T08:33:29;98662.53;;;13.56;100.00
70815;BME280;58428;49.478;10.986;2022-10-26T08:35:59;98663.56;;;13.63;100.00
70815;BME280;58428;49.478;10.986;2022-10-26T08:38:25;98660.06;;;13.75;100.00
70815;BME280;58428;49.478;10.986;2022-10-26T08:40:51;98662.44;;;13.88;100.00
70815;BME280;58428;49.478;10.986;2022-10-26T08:43:28;98671.16;;;13.94;100.00
70815;BME280;58428;49.478;10.986;2022-10-26T08:46:12;98666.19;;;14.07;100.00
70815;BME280;58428;49.478;10.986;2022-10-26T08:48:42;98668.19;;;14.22;100.00
70815;BME280;58428;49.478;10.986;2022-10-26T08:51:19;98663.88;;;14.33;100.00
70815;BME280;58428;49.478;10.986;2022-10-26T08:53:59;98661.34;;;14.52;100.00
70815;BME280;58428;49.478;10.986;2022-10-26T08:56:41;98674.13;;;14.51;100.00
70815;BME280;58428;49.478;10.986;2022-10-26T09:01:36;98677.75;;;14.82;100.00
70815;BME280;58428;49.478;10.986;2022-10-26T09:04:09;98683.31;;;14.86;100.00
70815;BME280;58428;49.478;10.986;2022-10-26T09:06:52;98679.91;;;14.89;100.00
70815;BME280;58428;49.478;10.986;2022-10-26T09:09:44;98682.94;;;14.99;100.00
70815;BME280;58428;49.478;10.986;2022-10-26T09:18:33;98680.56;;;15.40;100.00
70815;BME280;58428;49.478;10.986;2022-10-26T09:26:36;98688.09;;;15.58;100.00
70815;BME280;58428;49.478;10.986;2022-10-26T09:29:06;98690.09;;;15.77;100.00
70815;BME280;58428;49.478;10.986;2022-10-26T09:31:40;98695.84;;;15.72;100.00
70815;BME280;58428;49.478;10.986;2022-10-26T09:34:06;98693.59;;;15.77;100.00
70815;BME280;58428;49.478;10.986;2022-10-26T09:36:38;98703.47;;;15.82;100.00
70815;BME280;58428;49.478;10.986;2022-10-26T09:39:09;98704.97;;;15.79;100.00
70815;BME280;58428;49.478;10.986;2022-10-26T09:41:49;98705.94;;;15.86;100.00
70815;BME280;58428;49.478;10.986;2022-10-26T09:44:33;98712.63;;;15.89;100.00
70815;BME280;58428;49.478;10.986;2022-10-26T09:49:55;98714.56;;;15.88;100.00
70815;BME280;58428;49.478;10.986;2022-10-26T09:52:23;98713.00;;;15.87;100.00
70815;BME280;58428;49.478;10.986;2022-10-26T09:54:49;98712.28;;;15.90;100.00
70815;BME280;58428;49.478;10.986;2022-10-26T09:57:17;98714.41;;;15.97;100.00
70815;BME280;58428;49.478;10.986;2022-10-26T09:59:44;98711.72;;;16.00;100.00
70815;BME280;58428;49.478;10.986;2022-10-26T10:04:56;98722.41;;;16.21;100.00
70815;BME280;58428;49.478;10.986;2022-10-26T10:07:23;98731.91;;;16.26;100.00
70815;BME280;58428;49.478;10.986;2022-10-26T10:10:19;98736.75;;;16.33;100.00
70815;BME280;58428;49.478;10.986;2022-10-26T10:12:46;98729.69;;;16.47;100.00
70815;BME280;58428;49.478;10.986;2022-10-26T10:15:22;98735.28;;;16.54;100.00
70815;BME280;58428;49.478;10.986;2022-10-26T10:17:52;98735.38;;;16.58;100.00
70815;BME280;58428;49.478;10.986;2022-10-26T10:20:31;98742.75;;;16.72;100.00
70815;BME280;58428;49.478;10.986;2022-10-26T10:22:59;98739.56;;;16.89;100.00
70815;BME280;58428;49.478;10.986;2022-10-26T10:25:35;98743.63;;;17.14;100.00
70815;BME280;58428;49.478;10.986;2022-10-26T10:28:19;98737.78;;;17.34;100.00
70815;BME280;58428;49.478;10.986;2022-10-26T10:31:01;98736.66;;;17.35;100.00
70815;BME280;58428;49.478;10.986;2022-10-26T10:33:38;98748.72;;;17.53;100.00
70815;BME280;58428;49.478;10.986;2022-10-26T10:36:07;98744.13;;;17.57;100.00
70815;BME280;58428;49.478;10.986;2022-10-26T10:38:41;98741.72;;;17.55;100.00
70815;BME280;58428;49.478;10.986;2022-10-26T10:41:24;98745.53;;;17.69;100.00
70815;BME280;58428;49.478;10.986;2022-10-26T10:46:37;98745.84;;;17.87;100.00
70815;BME280;58428;49.478;10.986;2022-10-26T10:49:15;98736.53;;;17.91;100.00
70815;BME280;58428;49.478;10.986;2022-10-26T10:51:42;98742.19;;;18.02;100.00
70815;BME280;58428;49.478;10.986;2022-10-26T10:54:40;98745.78;;;18.05;100.00
70815;BME280;58428;49.478;10.986;2022-10-26T11:00:17;98737.09;;;18.00;100.00
70815;BME280;58428;49.478;10.986;2022-10-26T11:08:11;98763.84;;;17.88;100.00
70815;BME280;58428;49.478;10.986;2022-10-26T11:10:39;98749.19;;;17.99;100.00
70815;BME280;58428;49.478;10.986;2022-10-26T11:13:17;98750.19;;;18.10;100.00
70815;BME280;58428;49.478;10.986;2022-10-26T11:15:48;98756.53;;;18.14;100.00
70815;BME280;58428;49.478;10.986;2022-10-26T11:18:29;98756.94;;;18.16;100.00
70815;BME280;58428;49.478;10.986;2022-10-26T11:21:01;98761.50;;;18.08;100.00
70815;BME280;58428;49.478;10.986;2022-10-26T11:23:41;98770.50;;;18.09;100.00
70815;BME280;58428;49.478;10.986;2022-10-26T11:26:23;98765.38;;;18.07;100.00
70815;BME280;58428;49.478;10.986;2022-10-26T11:32:14;98766.47;;;17.81;100.00
70815;BME280;58428;49.478;10.986;2022-10-26T11:34:45;98773.03;;;17.99;100.00
70815;BME280;58428;49.478;10.986;2022-10-26T11:37:21;98764.69;;;18.10;100.00
70815;BME280;58428;49.478;10.986;2022-10-26T11:40:01;98762.03;;;18.17;100.00
70815;BME280;58428;49.478;10.986;2022-10-26T11:42:43;98765.47;;;18.33;100.00
70815;BME280;58428;49.478;10.986;2022-10-26T11:50:42;98773.56;;;18.52;100.00
70815;BME280;58428;49.478;10.986;2022-10-26T11:55:35;98770.66;;;18.67;100.00
70815;BME280;58428;49.478;10.986;2022-10-26T11:58:02;98771.63;;;18.78;100.00
70815;BME280;58428;49.478;10.986;2022-10-26T12:00:30;98777.09;;;18.78;100.00
70815;BME280;58428;49.478;10.986;2022-10-26T12:03:05;98776.75;;;18.80;100.00
70815;BME280;58428;49.478;10.986;2022-10-26T12:05:59;98778.38;;;18.84;100.00
70815;BME280;58428;49.478;10.986;2022-10-26T12:08:41;98781.88;;;18.84;100.00
70815;BME280;58428;49.478;10.986;2022-10-26T12:11:37;98780.28;;;18.80;100.00
70815;BME280;58428;49.478;10.986;2022-10-26T12:19:27;98794.47;;;18.89;100.00
70815;BME280;58428;49.478;10.986;2022-10-26T12:21:55;98795.31;;;18.93;100.00
70815;BME280;58428;49.478;10.986;2022-10-26T12:26:59;98786.94;;;19.08;100.00
70815;BME280;58428;49.478;10.986;2022-10-26T12:29:43;98790.50;;;19.09;100.00
70815;BME280;58428;49.478;10.986;2022-10-26T12:39:46;98787.41;;;19.14;100.00
70815;BME280;58428;49.478;10.986;2022-10-26T12:45:01;98787.88;;;19.19;100.00
70815;BME280;58428;49.478;10.986;2022-10-26T13:00:47;98793.25;;;19.38;100.00
70815;BME280;58428;49.478;10.986;2022-10-26T13:03:34;98789.13;;;19.54;100.00
70815;BME280;58428;49.478;10.986;2022-10-26T13:08:52;98796.34;;;19.69;100.00
70815;BME280;58428;49.478;10.986;2022-10-26T13:11:34;98795.47;;;19.61;100.00
70815;BME280;58428;49.478;10.986;2022-10-26T13:14:04;98801.78;;;19.65;100.00
70815;BME280;58428;49.478;10.986;2022-10-26T13:16:31;98806.66;;;19.79;100.00
70815;BME280;58428;49.478;10.986;2022-10-26T13:18:58;98805.66;;;19.93;100.00
70815;BME280;58428;49.478;10.986;2022-10-26T13:21:26;98792.41;;;20.02;100.00
70815;BME280;58428;49.478;10.986;2022-10-26T13:24:12;98795.13;;;19.99;100.00
70815;BME280;58428;49.478;10.986;2022-10-26T13:32:41;98795.78;;;19.53;100.00
70815;BME280;58428;49.478;10.986;2022-10-26T13:35:14;98792.00;;;19.35;100.00
70815;BME280;58428;49.478;10.986;2022-10-26T13:37:43;98800.13;;;19.25;100.00
70815;BME280;58428;49.478;10.986;2022-10-26T13:40:16;98803.97;;;19.20;100.00
70815;BME280;58428;49.478;10.986;2022-10-26T13:42:48;98806.38;;;19.22;100.00
70815;BME280;58428;49.478;10.986;2022-10-26T13:45:18;98815.75;;;19.21;100.00
70815;BME280;58428;49.478;10.986;2022-10-26T13:51:04;98820.69;;;19.12;100.00
70815;BME280;58428;49.478;10.986;2022-10-26T13:58:49;98819.88;;;19.08;100.00
70815;BME280;58428;49.478;10.986;2022-10-26T14:01:18;98823.78;;;19.07;100.00
70815;BME280;58428;49.478;10.986;2022-10-26T14:03:48;98821.81;;;19.08;100.00
70815;BME280;58428;49.478;10.986;2022-10-26T14:08:49;98832.06;;;19.11;100.00
70815;BME280;58428;49.478;10.986;2022-10-26T14:11:21;98833.50;;;19.01;100.00
70815;BME280;58428;49.478;10.986;2022-10-26T14:13:50;98837.69;;;18.95;100.00
70815;BME280;58428;49.478;10.986;2022-10-26T14:16:25;98844.81;;;19.00;100.00
70815;BME280;58428;49.478;10.986;2022-10-26T14:18:56;98841.44;;;19.10;100.00
70815;BME280;58428;49.478;10.986;2022-10-26T14:21:22;98847.78;;;19.14;100.00
70815;BME280;58428;49.478;10.986;2022-10-26T14:23:57;98846.22;;;19.16;100.00
70815;BME280;58428;49.478;10.986;2022-10-26T14:26:29;98847.09;;;19.20;100.00
70815;BME280;58428;49.478;10.986;2022-10-26T14:29:00;98851.47;;;19.24;100.00
70815;BME280;58428;49.478;10.986;2022-10-26T14:31:28;98851.09;;;19.26;100.00
70815;BME280;58428;49.478;10.986;2022-10-26T14:33:57;98851.41;;;19.21;100.00
70815;BME280;58428;49.478;10.986;2022-10-26T14:39:05;98859.22;;;18.93;100.00
70815;BME280;58428;49.478;10.986;2022-10-26T14:41:34;98863.31;;;18.80;100.00
70815;BME280;58428;49.478;10.986;2022-10-26T14:44:01;98864.66;;;18.68;100.00
70815;BME280;58428;49.478;10.986;2022-10-26T14:46:32;98861.91;;;18.68;100.00
70815;BME280;58428;49.478;10.986;2022-10-26T14:49:02;98856.31;;;18.61;100.00
70815;BME280;58428;49.478;10.986;2022-10-26T14:51:34;98862.91;;;18.56;100.00
70815;BME280;58428;49.478;10.986;2022-10-26T14:54:01;98865.16;;;18.51;100.00
70815;BME280;58428;49.478;10.986;2022-10-26T14:56:46;98863.91;;;18.45;100.00
70815;BME280;58428;49.478;10.986;2022-10-26T15:02:19;98869.25;;;18.38;100.00
70815;BME280;58428;49.478;10.986;2022-10-26T15:04:59;98868.44;;;18.38;100.00
70815;BME280;58428;49.478;10.986;2022-10-26T15:07:35;98871.63;;;18.40;100.00
70815;BME280;58428;49.478;10.986;2022-10-26T15:10:02;98884.53;;;18.39;100.00
70815;BME280;58428;49.478;10.986;2022-10-26T15:14:59;98891.47;;;18.33;100.00
70815;BME280;58428;49.478;10.986;2022-10-26T15:17:36;98890.63;;;18.29;100.00